CST,Max TemperatureF,Mean TemperatureF,Min TemperatureF,Max Dew PointF,MeanDew PointF,Min DewpointF,Max Humidity, Mean Humidity, Min Humidity, Max Sea Level PressureIn, Mean Sea Level PressureIn, Min Sea Level PressureIn, Max VisibilityMiles, Mean VisibilityMiles, Min VisibilityMiles, Max Wind SpeedMPH, Mean Wind SpeedMPH, Max Gust SpeedMPH,PrecipitationIn, CloudCover, Events, WindDirDegrees
2013-2-1,45,28,10,32,23,5,92,74,55,30.17,30.03,29.94,10,10,10,16,5,20,0.00,5,,279
2013-2-2,49,40,30,31,26,21,90,66,33,30.22,30.14,30.08,10,10,10,30,12,41,0.00,1,,293
2013-2-3,53,38,23,26,22,18,90,61,25,30.22,29.99,29.81,10,10,10,24,7,29,0.00,0,,256
2013-2-4,53,38,22,27,23,18,91,60,25,29.93,29.86,29.78,10,10,10,16,5,20,0.03,3,,263
2013-2-5,52,41,30,26,22,18,73,50,27,30.03,29.93,29.84,10,10,10,17,8,22,0.00,3,,269
2013-2-6,55,45,35,28,23,18,72,46,23,30.00,29.84,29.76,10,10,10,16,10,21,0.00,2,,283
2013-2-7,51,38,23,29,20,6,83,55,16,30.14,30.09,30.00,10,10,10,18,6,22,0.00,0,,311
2013-2-8,54,38,22,26,23,17,79,58,25,30.14,29.97,29.83,10,10,10,28,12,34,0.00,0,,168
2013-2-9,50,38,25,29,22,18,87,62,28,29.83,29.67,29.47,10,9,2,17,10,25,0.01,3,Snow,127
2013-2-10,32,28,24,25,21,15,86,77,60,29.93,29.58,29.34,10,4,0,41,23,56,0.01,6,Snow,333
2013-2-11,29,20,12,15,11,5,79,66,52,30.12,30.05,29.94,10,10,10,24,13,37,0.00,0,,279
2013-2-12,39,28,16,24,14,5,73,59,41,30.03,29.97,29.92,10,10,10,15,8,,0.00,1,,267
2013-2-13,48,35,22,32,22,14,82,58,39,29.92,29.84,29.76,10,10,10,25,12,31,0.00,2,,287
2013-2-14,36,26,16,27,19,12,84,66,43,30.29,30.10,29.92,10,10,10,34,12,48,0.00,2,,310
2013-2-15,30,22,14,15,10,7,84,65,39,30.30,30.28,30.23,10,10,10,24,7,31,0.00,2,,297
2013-2-16,53,34,16,26,21,9,83,57,30,30.22,29.99,29.90,10,10,10,26,9,33,0.00,3,Snow,260
2013-2-17,59,43,27,27,20,-1,84,50,9,29.89,29.69,29.54,10,10,10,20,7,25,0.00,0,,254
2013-2-18,39,30,20,25,17,10,72,55,36,30.11,29.90,29.69,10,10,10,32,21,43,0.00,6,,332
2013-2-19,31,20,10,12,6,0,79,58,35,30.23,30.17,30.12,10,10,10,14,7,18,0.00,0,,52
2013-2-20,24,18,12,17,7,-4,81,61,37,30.15,30.03,29.95,10,8,2,20,12,23,0.00,5,Snow,128
2013-2-21,19,16,12,15,12,8,82,79,75,29.98,29.93,29.89,5,2,0,17,9,17,0.03,8,Snow,59
2013-2-22,26,16,7,15,9,2,84,75,60,29.96,29.91,29.86,10,9,1,12,5,,0.00,1,Snow,280
2013-2-23,40,26,11,25,16,7,85,69,43,29.86,29.74,29.67,10,10,7,12,4,,0.00,1,,239
2013-2-24,35,30,25,29,24,20,85,74,59,30.07,29.91,29.74,10,9,5,14,6,18,0.00,8,Snow,353
2013-2-25,37,28,17,28,21,14,88,74,47,30.08,30.00,29.89,10,10,7,10,5,,0.00,2,,325
2013-2-26,39,26,12,25,16,8,85,69,34,29.98,29.86,29.81,10,10,10,12,3,,0.00,1,,340
2013-2-27,32,28,24,26,22,19,82,70,59,30.18,30.11,29.98,10,10,10,25,15,37,0.00,5,,330
2013-2-28,38,30,21,23,22,18,86,74,52,30.23,30.19,30.16,10,10,7,14,7,22,0.00,5,,338